Time;durP1;ratioP1;P1;durP2;ratioP2;P2;SDS_P1;SDS_P2;PMS_P1;PMS_P2;Temp;Humidity;BMP_temperature;BMP_pressure;BME280_temperature;BME280_humidity;BME280_pressure;Samples;Min_cycle;Max_cycle;Signal;HPM_P1;HPM_P2
2022/12/19 00:00:48;;;;;;;9.15;5.82;;;;;;;18.31;35.66;101707.00;5005067;28;20263;-68
2022/12/19 00:03:13;;;;;;;9.43;6.22;;;;;;;18.31;35.78;101703.53;5003618;28;20116;-68
2022/12/19 00:05:39;;;;;;;7.97;5.80;;;;;;;18.33;35.44;101700.78;5004193;28;20197;-72
2022/12/19 00:08:12;;;;;;;8.48;6.05;;;;;;;18.27;35.61;101689.69;5002532;28;20030;-68
2022/12/19 00:10:37;;;;;;;8.75;6.00;;;;;;;18.29;35.41;101693.06;5004479;28;20093;-69
2022/12/19 00:13:02;;;;;;;8.65;5.85;;;;;;;18.27;35.44;101686.22;5004497;28;20124;-67
2022/12/19 00:15:28;;;;;;;8.60;5.70;;;;;;;18.27;35.21;101691.47;5003974;28;20033;-68
2022/12/19 00:17:53;;;;;;;9.35;5.65;;;;;;;18.21;35.33;101683.97;5004186;28;20454;-68
2022/12/19 00:20:18;;;;;;;8.07;5.72;;;;;;;18.23;35.37;101679.44;5003667;28;20441;-69
2022/12/19 00:22:44;;;;;;;9.57;6.38;;;;;;;18.21;35.04;101682.19;5004331;28;20041;-70
2022/12/19 00:25:09;;;;;;;8.65;5.85;;;;;;;18.24;35.33;101681.13;5003050;28;20092;-68
2022/12/19 00:27:35;;;;;;;8.97;6.13;;;;;;;18.19;35.21;101675.34;5004412;28;20044;-68
2022/12/19 00:30:00;;;;;;;8.57;6.30;;;;;;;18.18;35.30;101671.00;5004243;28;20348;-68
2022/12/19 00:32:26;;;;;;;7.05;5.18;;;;;;;18.21;35.35;101670.78;5002030;28;20037;-67
2022/12/19 00:34:52;;;;;;;8.10;5.63;;;;;;;18.20;35.08;101669.09;5004061;28;20069;-67
2022/12/19 00:37:17;;;;;;;9.60;5.70;;;;;;;18.20;35.23;101669.94;5004246;28;20073;-73
2022/12/19 00:39:43;;;;;;;8.80;6.38;;;;;;;18.19;35.29;101662.16;5003230;28;20122;-68
2022/12/19 00:42:08;;;;;;;9.27;6.05;;;;;;;18.18;35.24;101661.28;5003667;28;20034;-71
2022/12/19 00:44:33;;;;;;;8.23;5.78;;;;;;;18.16;34.83;101660.56;5003625;28;20136;-68
2022/12/19 00:46:58;;;;;;;9.48;5.88;;;;;;;18.17;35.15;101666.69;4980597;28;20088;-68
2022/12/19 00:49:24;;;;;;;8.77;6.03;;;;;;;18.12;35.24;101654.66;5002949;28;20042;-71
2022/12/19 00:51:49;;;;;;;8.65;6.10;;;;;;;18.14;34.84;101665.09;5003626;28;20263;-69
2022/12/19 00:54:15;;;;;;;8.90;6.25;;;;;;;18.12;34.84;101645.91;5003289;28;20845;-68
2022/12/19 00:56:40;;;;;;;8.27;5.85;;;;;;;18.15;34.75;101650.09;5003609;28;20057;-70
2022/12/19 00:59:06;;;;;;;7.95;5.63;;;;;;;18.08;34.96;101632.06;5002496;28;20125;-72
2022/12/19 01:01:34;;;;;;;7.75;6.47;;;;;;;18.11;34.88;101631.00;5003392;28;20030;-71
2022/12/19 01:04:01;;;;;;;7.88;5.50;;;;;;;18.07;35.15;101632.16;5002919;28;20486;-69
2022/12/19 01:06:27;;;;;;;8.73;6.32;;;;;;;18.07;35.06;101626.88;5003533;28;20597;-69
2022/12/19 01:08:52;;;;;;;9.45;6.28;;;;;;;18.11;35.05;101631.84;5003471;28;20041;-68
2022/12/19 01:12:44;;;;;;;8.82;6.05;;;;;;;18.07;35.10;101627.75;5003061;28;20037;-69
2022/12/19 01:14:03;;;;;;;8.45;5.90;;;;;;;18.06;35.02;101633.97;5003013;28;20041;-69
2022/12/19 01:16:28;;;;;;;8.93;5.82;;;;;;;18.08;34.67;101626.78;5002963;28;20029;-69
2022/12/19 01:18:54;;;;;;;8.30;5.63;;;;;;;18.03;34.85;101614.88;5003015;28;20038;-68
2022/12/19 01:21:19;;;;;;;8.63;6.15;;;;;;;18.05;35.03;101608.53;5003271;28;20030;-72
2022/12/19 01:23:44;;;;;;;8.45;5.38;;;;;;;18.07;35.09;101609.28;5002195;28;20030;-69
2022/12/19 01:26:09;;;;;;;8.60;5.30;;;;;;;18.07;35.15;101613.69;5002887;28;20056;-69
2022/12/19 01:28:35;;;;;;;8.60;5.57;;;;;;;18.04;34.62;101601.59;5002259;28;20278;-71
2022/12/19 01:31:04;;;;;;;8.18;5.97;;;;;;;18.02;34.79;101592.06;5002700;28;20311;-68
2022/12/19 01:33:29;;;;;;;8.25;6.15;;;;;;;18.04;34.66;101609.50;5002292;28;20034;-71
2022/12/19 01:35:54;;;;;;;9.20;5.90;;;;;;;18.00;34.69;101596.63;5002966;28;20058;-68
2022/12/19 01:38:20;;;;;;;9.55;5.75;;;;;;;18.02;34.95;101600.81;5002103;28;20267;-67
2022/12/19 01:40:54;;;;;;;8.50;5.85;;;;;;;18.02;35.01;101605.25;5002922;28;20057;-68
2022/12/19 01:43:21;;;;;;;7.43;5.28;;;;;;;18.03;34.62;101606.97;5002801;28;20459;-69
2022/12/19 01:45:48;;;;;;;8.15;5.80;;;;;;;18.02;34.69;101614.00;5002427;28;20037;-68
2022/12/19 01:48:34;;;;;;;8.10;5.72;;;;;;;18.00;34.85;101604.53;5002192;28;20029;-67
2022/12/19 01:51:15;;;;;;;7.65;5.22;;;;;;;17.99;34.84;101611.59;5002125;28;20037;-68
2022/12/19 01:53:48;;;;;;;7.72;5.38;;;;;;;17.93;35.03;101599.66;5001874;28;20458;-69
2022/12/19 01:56:14;;;;;;;7.80;6.10;;;;;;;17.99;34.64;101600.19;5002512;28;20095;-69
2022/12/19 01:58:45;;;;;;;8.10;5.47;;;;;;;17.93;34.61;101594.41;5001712;28;20026;-71
2022/12/19 02:01:11;;;;;;;7.15;4.85;;;;;;;17.92;34.74;101590.06;5001104;28;20049;-68
2022/12/19 02:03:37;;;;;;;8.13;5.63;;;;;;;17.93;34.95;101589.13;5001727;28;20042;-68
2022/12/19 02:06:04;;;;;;;7.93;5.47;;;;;;;17.94;34.73;101588.19;5002212;28;20026;-68
2022/12/19 02:08:30;;;;;;;7.55;5.22;;;;;;;17.90;34.64;101577.94;5001873;28;20041;-72
2022/12/19 02:10:55;;;;;;;7.55;5.18;;;;;;;17.90;34.57;101570.03;5002069;28;20132;-71
2022/12/19 02:13:22;;;;;;;8.40;5.57;;;;;;;17.92;34.61;101571.59;5002406;28;20498;-69
2022/12/19 02:16:20;;;;;;;8.93;5.90;;;;;;;17.91;34.85;101569.94;5002281;28;20030;-66
2022/12/19 02:19:04;;;;;;;7.88;5.18;;;;;;;17.91;34.79;101569.94;4990321;28;20056;-69
2022/12/19 02:21:50;;;;;;;7.47;5.60;;;;;;;17.90;34.68;101557.69;5002101;28;20030;-68
2022/12/19 02:24:41;;;;;;;8.43;5.57;;;;;;;17.87;34.61;101549.13;5001641;28;20124;-68
2022/12/19 02:27:23;;;;;;;7.35;5.15;;;;;;;17.89;34.67;101548.06;5001126;28;20120;-71
2022/12/19 02:30:09;;;;;;;8.75;5.50;;;;;;;17.85;34.57;101543.94;5001070;28;20026;-69
2022/12/19 02:32:56;;;;;;;8.18;5.35;;;;;;;17.87;34.68;101549.13;5001379;28;20453;-69
2022/12/19 02:35:32;;;;;;;7.55;5.00;;;;;;;17.87;34.94;101547.31;5001409;28;20089;-68
2022/12/19 02:38:21;;;;;;;7.75;5.15;;;;;;;17.86;34.93;101547.41;5001119;28;20041;-69
2022/12/19 02:40:57;;;;;;;7.78;5.38;;;;;;;17.82;34.81;101543.31;5001951;28;20037;-70
2022/12/19 02:43:27;;;;;;;8.25;6.00;;;;;;;17.83;34.88;101534.44;5001603;28;20053;-69
2022/12/19 02:45:53;;;;;;;7.38;5.00;;;;;;;17.81;34.67;101520.53;5002500;28;20034;-68
2022/12/19 02:48:19;;;;;;;8.90;5.40;;;;;;;17.82;34.63;101524.88;5001190;28;20030;-67
2022/12/19 02:50:45;;;;;;;7.68;4.85;;;;;;;17.82;34.71;101524.88;5001425;28;20041;-69
2022/12/19 02:53:13;;;;;;;7.25;4.80;;;;;;;17.81;34.74;101518.72;5000258;28;20085;-68
2022/12/19 02:56:21;;;;;;;7.45;5.15;;;;;;;17.79;34.85;101507.47;4999291;28;20072;-68
2022/12/19 02:59:00;;;;;;;7.97;5.43;;;;;;;17.77;34.79;101502.28;5000741;28;20806;-69
2022/12/19 03:01:46;;;;;;;8.27;5.63;;;;;;;17.77;34.81;101496.19;5001796;28;20505;-69
2022/12/19 03:04:17;;;;;;;7.07;4.60;;;;;;;17.80;34.70;101506.53;4999634;28;20395;-67
2022/12/19 03:06:55;;;;;;;7.25;4.85;;;;;;;17.76;34.68;101502.41;4995786;28;20045;-70
2022/12/19 03:09:26;;;;;;;7.43;5.00;;;;;;;17.77;34.69;101510.19;4999565;28;20055;-68
2022/12/19 03:12:01;;;;;;;7.45;5.00;;;;;;;17.72;35.16;101501.78;4998549;28;20070;-69
2022/12/19 03:14:29;;;;;;;7.32;4.70;;;;;;;17.73;34.94;101495.53;4998431;28;20030;-70
2022/12/19 03:16:55;;;;;;;6.70;4.75;;;;;;;17.74;34.95;101504.31;4999640;28;20128;-68
2022/12/19 03:19:21;;;;;;;7.55;4.70;;;;;;;17.73;34.70;101494.69;4997977;28;20091;-69
2022/12/19 03:21:49;;;;;;;8.23;4.75;;;;;;;17.72;35.21;101493.88;4999818;28;20041;-67
2022/12/19 03:24:16;;;;;;;6.72;4.65;;;;;;;17.73;35.09;101497.34;5000735;28;20038;-68
2022/12/19 03:27:08;;;;;;;6.70;4.50;;;;;;;17.75;35.20;101501.56;5001196;28;20045;-68
2022/12/19 03:29:52;;;;;;;6.53;4.22;;;;;;;17.74;34.95;101485.84;4988764;28;20116;-68
2022/12/19 03:32:19;;;;;;;6.82;4.20;;;;;;;17.71;35.06;101494.81;4992346;28;20085;-71
2022/12/19 03:35:04;;;;;;;6.57;3.95;;;;;;;17.75;34.98;101500.69;5000795;28;20046;-70
2022/12/19 03:37:34;;;;;;;6.28;3.83;;;;;;;17.72;35.03;101485.97;5000815;28;20050;-71
2022/12/19 03:40:03;;;;;;;6.72;4.30;;;;;;;17.69;35.23;101482.66;5000737;28;20509;-69
2022/12/19 03:45:22;;;;;;;6.60;4.43;;;;;;;17.68;35.49;101483.63;5001216;28;20037;-68
2022/12/19 03:47:55;;;;;;;5.97;3.90;;;;;;;17.67;35.10;101481.94;5000652;28;20057;-68
2022/12/19 03:50:23;;;;;;;5.78;3.63;;;;;;;17.64;35.37;101480.38;4991519;28;20037;-69
2022/12/19 03:53:00;;;;;;;6.35;3.97;;;;;;;17.70;35.12;101476.44;5000645;28;20049;-71
2022/12/19 03:55:33;;;;;;;5.38;3.67;;;;;;;17.66;35.64;101477.63;4994242;28;20048;-71
2022/12/19 03:58:08;;;;;;;6.53;3.78;;;;;;;17.66;35.42;101477.63;5000385;28;20029;-71
2022/12/19 04:00:36;;;;;;;5.47;3.55;;;;;;;17.66;35.70;101480.28;5000758;28;20543;-69
2022/12/19 04:03:04;;;;;;;5.30;3.53;;;;;;;17.66;35.50;101480.28;5000721;28;20065;-67
2022/12/19 04:05:30;;;;;;;5.53;3.30;;;;;;;17.65;35.36;101473.31;4999769;28;20050;-68
2022/12/19 04:08:00;;;;;;;5.90;3.50;;;;;;;17.62;35.82;101474.34;5000655;28;20394;-69
2022/12/19 04:10:27;;;;;;;5.75;3.78;;;;;;;17.68;35.42;101478.38;5001145;28;20069;-68
2022/12/19 04:13:01;;;;;;;5.25;3.38;;;;;;;17.66;35.61;101486.38;5000893;28;20041;-69
2022/12/19 04:15:38;;;;;;;6.40;3.67;;;;;;;17.66;35.53;101467.09;5000958;28;20397;-70
2022/12/19 04:18:08;;;;;;;6.03;3.22;;;;;;;17.66;35.97;101473.19;5001052;28;20026;-70
2022/12/19 04:20:37;;;;;;;6.07;3.38;;;;;;;17.64;35.77;101458.44;5000462;28;20558;-68
2022/12/19 04:23:09;;;;;;;5.45;3.15;;;;;;;17.62;35.91;101455.06;5000649;28;20397;-69
2022/12/19 04:25:39;;;;;;;5.82;3.10;;;;;;;17.66;35.92;101467.09;5004214;28;20040;-70
2022/12/19 04:28:11;;;;;;;6.32;3.13;;;;;;;17.64;35.99;101468.97;5004010;28;20034;-69
2022/12/19 04:30:38;;;;;;;5.50;3.47;;;;;;;17.61;35.97;101462.13;5004232;28;20057;-72
2022/12/19 04:33:04;;;;;;;5.53;3.00;;;;;;;17.65;35.99;101460.13;5003799;28;20475;-68
2022/12/19 04:35:29;;;;;;;5.32;3.35;;;;;;;17.63;35.75;101454.13;5003543;28;20042;-68
2022/12/19 04:37:54;;;;;;;4.95;3.13;;;;;;;17.63;36.18;101454.97;5004029;28;20038;-68
2022/12/19 04:40:20;;;;;;;4.82;2.80;;;;;;;17.66;36.10;101461.81;5003707;28;20492;-70
2022/12/19 04:42:45;;;;;;;5.30;3.17;;;;;;;17.66;35.94;101465.28;5004034;28;20033;-67
2022/12/19 04:45:10;;;;;;;5.28;3.17;;;;;;;17.62;36.16;101449.78;5003327;28;20520;-71
2022/12/19 04:47:36;;;;;;;4.93;2.88;;;;;;;17.65;36.30;101455.69;5003456;28;20096;-71
2022/12/19 04:50:01;;;;;;;4.80;2.67;;;;;;;17.64;36.31;101456.66;5003616;28;20982;-68
2022/12/19 04:52:26;;;;;;;5.38;3.25;;;;;;;17.64;36.17;101446.09;5003808;28;20382;-68
2022/12/19 04:54:51;;;;;;;4.57;2.72;;;;;;;17.61;36.27;101445.47;5003383;28;20026;-71
2022/12/19 04:57:17;;;;;;;4.70;2.58;;;;;;;17.63;36.37;101449.69;5003252;28;20042;-68
2022/12/19 04:59:42;;;;;;;5.70;3.08;;;;;;;17.61;36.34;101448.97;5002773;28;20037;-68
2022/12/19 05:02:07;;;;;;;4.82;3.00;;;;;;;17.62;36.42;101452.44;5003125;28;20844;-72
2022/12/19 05:04:33;;;;;;;5.03;2.67;;;;;;;17.61;36.54;101446.31;5003196;28;20030;-72
2022/12/19 05:06:59;;;;;;;5.28;2.92;;;;;;;17.62;36.50;101447.16;5003891;28;20135;-67
2022/12/19 05:09:24;;;;;;;4.43;2.60;;;;;;;17.63;36.57;101444.41;5002856;28;20048;-70
2022/12/19 05:11:49;;;;;;;4.90;2.63;;;;;;;17.61;36.39;101440.19;5003403;28;20061;-73
2022/12/19 05:14:14;;;;;;;4.78;2.65;;;;;;;17.64;36.67;101446.09;5002946;28;20068;-68
2022/12/19 05:16:40;;;;;;;4.93;2.90;;;;;;;17.62;36.46;101442.72;5003297;28;20577;-68
2022/12/19 05:19:06;;;;;;;4.65;2.78;;;;;;;17.63;36.54;101438.31;5002776;28;20038;-70
2022/12/19 05:21:31;;;;;;;4.80;2.65;;;;;;;17.62;36.58;101436.59;5002697;28;20040;-71
2022/12/19 05:23:56;;;;;;;4.30;2.45;;;;;;;17.65;36.52;101442.50;5002013;28;20088;-73
2022/12/19 05:26:22;;;;;;;4.20;2.30;;;;;;;17.62;36.46;101433.97;5003054;28;20038;-68
2022/12/19 05:28:47;;;;;;;4.93;2.50;;;;;;;17.66;36.57;101438.09;5002581;28;20050;-72
2022/12/19 05:31:21;;;;;;;4.68;2.35;;;;;;;17.60;36.59;101431.44;5002438;28;20065;-71
2022/12/19 05:33:47;;;;;;;5.80;2.70;;;;;;;17.65;36.72;101433.75;5002911;28;20034;-67
2022/12/19 05:36:14;;;;;;;4.50;2.33;;;;;;;17.63;36.46;101427.75;5001682;28;20283;-70
2022/12/19 05:38:40;;;;;;;3.80;1.92;;;;;;;17.66;36.70;101433.66;5002783;28;20030;-67
2022/12/19 05:41:08;;;;;;;3.72;2.05;;;;;;;17.71;36.87;101428.06;5003168;28;20034;-69
2022/12/19 05:43:33;;;;;;;4.20;2.30;;;;;;;17.71;36.62;101428.91;5002483;28;20040;-67
2022/12/19 05:45:59;;;;;;;3.70;1.90;;;;;;;17.77;36.79;101435.53;5002044;28;20259;-72
2022/12/19 05:48:24;;;;;;;3.85;2.00;;;;;;;17.84;36.67;101439.41;5002583;28;20084;-68
2022/12/19 05:50:49;;;;;;;4.05;2.15;;;;;;;17.85;36.88;101424.44;5002214;28;20049;-69
2022/12/19 05:53:16;;;;;;;4.00;1.98;;;;;;;17.92;37.02;101439.75;5002831;28;20092;-71
2022/12/19 05:55:42;;;;;;;4.70;2.55;;;;;;;17.96;36.76;101443.03;4999025;28;20033;-69
2022/12/19 05:58:07;;;;;;;3.55;1.85;;;;;;;17.99;36.67;101444.59;5002819;28;20131;-71
2022/12/19 06:00:32;;;;;;;3.67;1.90;;;;;;;18.04;36.76;101440.69;5002059;28;20433;-68
2022/12/19 06:02:57;;;;;;;4.30;1.92;;;;;;;18.09;36.60;101453.53;5002619;28;20034;-67
2022/12/19 06:05:23;;;;;;;3.95;2.10;;;;;;;18.11;36.83;101446.34;5001180;28;20548;-70
2022/12/19 06:07:48;;;;;;;4.03;2.13;;;;;;;18.10;36.83;101439.38;5001658;28;20026;-69
2022/12/19 06:10:13;;;;;;;4.43;2.05;;;;;;;18.12;36.69;101433.06;5002186;28;20423;-70
2022/12/19 06:12:39;;;;;;;3.45;1.80;;;;;;;18.13;36.74;101429.47;5002504;28;20061;-69
2022/12/19 06:15:04;;;;;;;4.65;1.73;;;;;;;18.18;36.68;101444.94;5000945;28;20053;-68
2022/12/19 06:17:30;;;;;;;3.95;1.98;;;;;;;18.18;36.76;101442.31;5001493;28;20405;-69
2022/12/19 06:19:55;;;;;;;4.25;1.80;;;;;;;18.23;36.92;101440.22;5001564;28;20518;-68
2022/12/19 06:22:20;;;;;;;3.78;1.95;;;;;;;18.23;37.24;101432.28;4999759;28;20493;-67
2022/12/19 06:24:45;;;;;;;3.60;1.70;;;;;;;18.22;37.27;101432.41;5001779;28;20029;-70
2022/12/19 06:27:11;;;;;;;4.07;1.90;;;;;;;18.27;37.59;101438.19;5002055;28;20042;-69
2022/12/19 06:29:36;;;;;;;3.40;1.75;;;;;;;18.23;37.90;101429.66;5001923;28;20045;-67
2022/12/19 06:32:01;;;;;;;4.55;1.98;;;;;;;18.25;37.83;101446.22;5001882;28;20022;-72
2022/12/19 06:34:26;;;;;;;3.90;1.70;;;;;;;18.26;38.14;101433.84;5000474;28;20033;-67
2022/12/19 06:36:52;;;;;;;5.25;1.85;;;;;;;18.26;38.18;101436.47;5001237;28;20477;-69
2022/12/19 06:39:17;;;;;;;3.87;1.80;;;;;;;18.28;38.02;101442.50;5001808;28;20038;-72
2022/12/19 06:44:26;;;;;;;3.77;1.70;;;;;;;18.27;38.45;101459.28;5001861;28;20049;-69
2022/12/19 06:46:52;;;;;;;4.43;1.90;;;;;;;18.26;38.48;101449.69;5001930;28;20030;-69
2022/12/19 06:49:18;;;;;;;4.22;1.77;;;;;;;18.26;38.46;101457.59;5001553;28;20387;-70
2022/12/19 06:51:44;;;;;;;5.78;2.10;;;;;;;18.29;38.74;101442.41;5001792;28;20045;-68
2022/12/19 06:54:12;;;;;;;5.40;1.70;;;;;;;18.29;38.81;101452.09;5001406;28;20466;-70
2022/12/19 06:56:39;;;;;;;5.75;2.00;;;;;;;18.34;39.21;101452.63;5001894;28;20394;-69
2022/12/19 06:59:06;;;;;;;4.43;1.90;;;;;;;18.33;39.00;101456.22;5001625;28;20164;-68
2022/12/19 07:01:43;;;;;;;3.63;1.52;;;;;;;18.39;39.29;101465.47;5001409;28;20037;-72
2022/12/19 07:04:11;;;;;;;4.55;1.90;;;;;;;18.38;39.45;101453.25;5001239;28;20038;-69
2022/12/19 07:06:37;;;;;;;7.20;2.33;;;;;;;18.40;39.18;101459.25;4999991;28;20398;-68
2022/12/19 07:09:04;;;;;;;4.07;1.70;;;;;;;18.41;39.36;101453.03;5000582;28;20038;-68
2022/12/19 07:11:29;;;;;;;4.30;1.75;;;;;;;18.43;39.26;101457.22;5001305;28;20045;-68
2022/12/19 07:13:54;;;;;;;5.55;1.95;;;;;;;18.44;39.62;101443.06;5000702;28;20030;-69
2022/12/19 07:16:19;;;;;;;5.07;1.60;;;;;;;18.46;39.49;101448.25;5001945;28;20033;-69
2022/12/19 07:18:45;;;;;;;5.30;1.80;;;;;;;18.47;39.44;101450.78;5001516;28;20077;-68
2022/12/19 07:21:10;;;;;;;4.15;1.73;;;;;;;18.48;39.41;101457.75;5001257;28;20038;-69
2022/12/19 07:23:36;;;;;;;3.80;1.63;;;;;;;18.47;39.53;101442.03;5001243;28;20034;-71
2022/12/19 07:26:02;;;;;;;4.93;1.77;;;;;;;18.47;39.92;101448.13;5001056;28;20095;-68
2022/12/19 07:28:27;;;;;;;6.07;1.77;;;;;;;18.47;39.82;101458.69;5000789;28;20048;-69
2022/12/19 07:30:52;;;;;;;3.95;1.63;;;;;;;18.47;39.81;101447.28;5000925;28;20041;-68
2022/12/19 07:33:18;;;;;;;4.22;1.48;;;;;;;18.47;39.90;101444.66;5000698;28;20116;-70
2022/12/19 07:35:43;;;;;;;6.43;2.08;;;;;;;18.48;39.96;101447.19;5000516;28;21053;-68
2022/12/19 07:38:08;;;;;;;5.13;2.22;;;;;;;18.47;39.79;101452.56;5000790;28;20041;-69
2022/12/19 07:40:34;;;;;;;4.90;1.80;;;;;;;18.49;39.85;101450.66;5001014;28;20401;-68
2022/12/19 07:43:00;;;;;;;4.07;1.42;;;;;;;18.46;40.30;101446.44;5001152;28;20038;-71
2022/12/19 07:45:27;;;;;;;3.83;1.70;;;;;;;18.47;40.43;101448.13;5000300;28;20204;-69
2022/12/19 07:47:52;;;;;;;4.03;1.83;;;;;;;18.53;40.03;101456.53;5001240;28;20036;-72
2022/12/19 07:50:17;;;;;;;6.30;2.15;;;;;;;18.53;40.56;101456.53;5000512;28;20128;-69
2022/12/19 07:52:42;;;;;;;5.03;1.50;;;;;;;18.55;40.18;101459.91;5001207;28;20070;-67
2022/12/19 07:55:08;;;;;;;4.10;1.80;;;;;;;18.56;40.31;101458.97;5000696;28;20852;-71
2022/12/19 07:57:33;;;;;;;4.00;1.50;;;;;;;18.54;40.47;101474.06;5001408;28;20077;-68
2022/12/19 07:59:59;;;;;;;4.32;1.42;;;;;;;18.56;40.64;101477.44;5003736;28;20522;-69
2022/12/19 08:02:24;;;;;;;4.50;1.65;;;;;;;18.53;40.40;101462.66;5004673;28;20076;-70
2022/12/19 08:04:49;;;;;;;4.03;1.77;;;;;;;18.57;40.58;101485.25;5002585;28;20100;-68
2022/12/19 08:07:15;;;;;;;4.70;1.67;;;;;;;18.54;40.32;101469.63;5004666;28;20095;-68
2022/12/19 08:09:40;;;;;;;3.00;1.30;;;;;;;18.53;40.20;101475.03;5003676;28;20092;-67
2022/12/19 08:12:05;;;;;;;4.47;1.67;;;;;;;18.55;40.54;101488.94;5004261;28;20041;-68
2022/12/19 08:14:31;;;;;;;5.55;1.55;;;;;;;18.53;40.73;101490.84;5003333;28;20062;-68
2022/12/19 08:16:56;;;;;;;4.50;1.50;;;;;;;18.52;40.54;101487.38;5004829;28;20180;-69
2022/12/19 08:19:21;;;;;;;4.68;1.60;;;;;;;18.52;40.82;101490.03;5004002;28;20033;-69
2022/12/19 08:21:47;;;;;;;4.07;1.58;;;;;;;18.52;41.00;101478.59;5004562;28;20026;-69
2022/12/19 08:24:12;;;;;;;4.28;1.77;;;;;;;18.60;41.06;101492.94;5004076;28;20030;-68
2022/12/19 08:26:37;;;;;;;4.72;1.60;;;;;;;18.65;41.29;101474.97;5004604;28;20095;-68
2022/12/19 08:29:03;;;;;;;6.55;1.70;;;;;;;18.66;41.21;101479.31;5004148;28;20041;-70
2022/12/19 08:31:28;;;;;;;4.82;1.98;;;;;;;18.68;41.09;101479.19;5004420;28;20446;-68
2022/12/19 08:33:55;;;;;;;6.13;1.77;;;;;;;18.67;41.75;101475.72;5003806;28;20030;-69
2022/12/19 08:36:21;;;;;;;4.13;1.77;;;;;;;18.68;41.81;101474.75;5003659;28;20145;-69
2022/12/19 08:38:47;;;;;;;4.72;1.80;;;;;;;18.74;42.05;101480.53;5003377;28;20046;-71
2022/12/19 08:41:14;;;;;;;5.70;1.92;;;;;;;18.76;42.17;101492.66;5003908;28;20072;-68
2022/12/19 08:43:39;;;;;;;5.80;1.70;;;;;;;18.75;42.39;101490.97;5004022;28;20034;-68
2022/12/19 08:46:06;;;;;;;4.30;1.58;;;;;;;18.76;42.08;101490.03;5003289;28;20382;-70
2022/12/19 08:48:32;;;;;;;3.22;1.50;;;;;;;18.77;41.94;101494.34;5003730;28;20034;-70
2022/12/19 08:51:01;;;;;;;3.97;1.50;;;;;;;18.79;42.15;101489.78;5003593;28;20034;-70
2022/12/19 08:53:28;;;;;;;6.05;1.67;;;;;;;18.81;42.24;101490.50;5004004;28;20108;-69
2022/12/19 08:55:55;;;;;;;5.03;1.90;;;;;;;18.80;41.85;101488.00;5003511;28;20057;-69
2022/12/19 08:58:21;;;;;;;6.05;1.70;;;;;;;18.81;41.91;101484.41;5003841;28;20029;-68
2022/12/19 09:00:47;;;;;;;3.80;1.63;;;;;;;18.80;41.91;101478.28;5003395;28;20033;-68
2022/12/19 09:03:13;;;;;;;5.93;1.60;;;;;;;18.86;41.89;101492.84;5003524;28;20063;-71
2022/12/19 09:05:38;;;;;;;5.30;1.80;;;;;;;18.86;42.14;101490.22;5003369;28;20065;-68
2022/12/19 09:08:04;;;;;;;5.07;1.50;;;;;;;18.87;41.84;101486.63;5003596;28;20069;-70
2022/12/19 09:10:30;;;;;;;5.53;1.83;;;;;;;18.79;42.18;101483.69;5002555;28;20595;-69
2022/12/19 09:12:56;;;;;;;4.05;1.40;;;;;;;18.79;42.11;101489.78;5003321;28;20458;-69
2022/12/19 09:15:22;;;;;;;2.83;1.30;;;;;;;18.86;42.38;101492.84;5003003;28;20038;-69
2022/12/19 09:17:47;;;;;;;6.30;2.03;;;;;;;18.93;42.07;101511.72;5002826;28;20033;-69
2022/12/19 09:20:12;;;;;;;3.63;1.50;;;;;;;18.93;41.88;101496.75;5002930;28;20471;-71
2022/12/19 09:22:38;;;;;;;5.38;1.80;;;;;;;18.99;41.87;101503.34;5003170;28;20271;-69
2022/12/19 09:25:03;;;;;;;3.92;1.55;;;;;;;18.97;41.88;101498.19;5003136;28;20036;-69
2022/12/19 09:27:28;;;;;;;4.30;1.58;;;;;;;18.99;41.79;101505.97;5002532;28;20038;-69
2022/12/19 09:29:54;;;;;;;4.22;1.40;;;;;;;18.99;41.60;101503.34;5002599;28;20064;-68
2022/12/19 09:32:19;;;;;;;3.97;1.50;;;;;;;19.00;41.59;101502.41;5002406;28;20398;-70
2022/12/19 09:34:44;;;;;;;3.30;1.48;;;;;;;19.01;41.32;101506.75;4999661;28;20030;-74
2022/12/19 09:37:15;;;;;;;3.97;1.70;;;;;;;19.01;41.36;101499.66;4997004;28;20054;-71
2022/12/19 09:39:40;;;;;;;4.53;1.50;;;;;;;19.07;41.08;101505.41;4996733;28;20496;-75
2022/12/19 09:42:18;;;;;;;4.05;1.60;;;;;;;19.05;41.15;101508.19;4995340;28;20038;-71
2022/12/19 09:45:08;;;;;;;4.07;1.40;;;;;;;19.07;41.40;101505.41;4992077;28;20061;-73
2022/12/19 09:47:40;;;;;;;3.97;1.40;;;;;;;19.06;41.23;101507.22;4995136;28;20112;-73
2022/12/19 09:50:24;;;;;;;4.60;1.50;;;;;;;19.05;41.29;101515.25;4996416;28;20367;-70
2022/12/19 09:52:59;;;;;;;3.58;1.50;;;;;;;19.03;41.09;101505.66;4995311;28;20061;-70
2022/12/19 09:55:31;;;;;;;5.80;1.63;;;;;;;19.01;41.16;101498.81;4994236;28;20038;-75
2022/12/19 09:58:07;;;;;;;3.83;1.50;;;;;;;19.03;41.10;101510.09;4995636;28;20061;-70
2022/12/19 10:00:42;;;;;;;3.35;1.40;;;;;;;19.08;41.08;101518.50;4988709;28;20040;-72
2022/12/19 10:03:43;;;;;;;3.75;1.48;;;;;;;19.11;41.09;101520.94;4996341;28;20048;-70
2022/12/19 10:06:21;;;;;;;3.47;1.50;;;;;;;19.12;40.95;101527.03;4995848;28;20080;-73
2022/12/19 10:08:47;;;;;;;4.20;1.67;;;;;;;19.10;40.94;101518.41;4994697;28;20061;-69
2022/12/19 10:11:15;;;;;;;3.20;1.40;;;;;;;19.12;41.06;101519.13;4996443;28;20036;-70
2022/12/19 10:14:18;;;;;;;3.45;1.50;;;;;;;19.15;40.70;101521.53;4996620;28;20877;-72
2022/12/19 10:17:05;;;;;;;3.13;1.30;;;;;;;19.16;40.87;101523.22;4990617;28;20042;-70
2022/12/19 10:20:04;;;;;;;4.68;1.60;;;;;;;19.19;40.95;101515.91;4993394;28;20022;-72
2022/12/19 10:22:39;;;;;;;3.78;1.50;;;;;;;19.17;40.46;101509.91;4993395;28;20132;-71
2022/12/19 10:25:24;;;;;;;5.38;1.30;;;;;;;19.16;40.52;101505.56;4995146;28;20532;-72
2022/12/19 10:27:57;;;;;;;3.83;1.48;;;;;;;19.17;40.67;101504.63;4996197;28;20036;-67
2022/12/19 10:30:24;;;;;;;4.03;1.57;;;;;;;19.22;40.81;101514.84;4996059;28;20044;-68
2022/12/19 10:32:56;;;;;;;4.28;1.33;;;;;;;19.19;40.64;101521.19;4993640;28;20030;-71
2022/12/19 10:35:27;;;;;;;3.28;1.50;;;;;;;19.22;40.52;101520.13;4994600;28;20490;-72
2022/12/19 10:38:18;;;;;;;3.75;1.60;;;;;;;19.25;40.61;101527.81;4995589;28;20930;-69
2022/12/19 10:41:21;;;;;;;3.25;1.40;;;;;;;19.22;40.66;101509.56;4988118;28;20060;-69
2022/12/19 10:44:05;;;;;;;2.90;1.27;;;;;;;19.25;40.76;101513.75;5001694;28;20041;-76
2022/12/19 10:46:41;;;;;;;3.45;1.60;;;;;;;19.26;40.41;101518.91;5000712;28;20549;-72
2022/12/19 10:49:20;;;;;;;3.15;1.50;;;;;;;19.14;40.19;101506.66;5001244;28;20045;-70
2022/12/19 10:51:54;;;;;;;3.47;1.40;;;;;;;19.20;40.37;101517.59;5001953;28;20466;-70
2022/12/19 10:54:22;;;;;;;3.75;1.40;;;;;;;19.17;40.38;101523.13;5001224;28;20083;-70
2022/12/19 10:56:48;;;;;;;2.70;1.30;;;;;;;19.14;40.20;101502.22;5000424;28;20041;-72
2022/12/19 10:59:18;;;;;;;7.38;1.55;;;;;;;19.13;40.37;101511.06;5000647;28;20108;-71
2022/12/19 11:01:45;;;;;;;3.85;1.92;;;;;;;19.15;40.30;101518.88;5000104;28;20029;-70
2022/12/19 11:04:26;;;;;;;3.40;1.42;;;;;;;19.13;40.43;101513.72;5001257;28;20096;-70
2022/12/19 11:07:01;;;;;;;3.53;1.40;;;;;;;19.14;40.37;101501.38;4982293;28;20037;-72
2022/12/19 11:09:30;;;;;;;3.55;1.40;;;;;;;19.13;40.15;101507.59;4973374;28;20152;-72
2022/12/19 11:12:06;;;;;;;3.10;1.40;;;;;;;19.11;40.48;101517.44;4994274;28;20069;-70
2022/12/19 11:14:33;;;;;;;2.97;1.27;;;;;;;19.09;40.43;101509.63;5000651;28;20092;-69
2022/12/19 11:16:58;;;;;;;4.50;1.38;;;;;;;19.10;40.15;101494.63;5000961;28;20117;-70
2022/12/19 11:19:35;;;;;;;3.15;1.52;;;;;;;19.08;40.27;101491.25;4978932;28;20125;-74
2022/12/19 11:22:14;;;;;;;2.75;1.27;;;;;;;19.05;40.15;101476.47;5000740;28;20469;-71
2022/12/19 11:24:45;;;;;;;3.70;1.30;;;;;;;19.08;40.25;101489.44;4999524;28;20038;-71
2022/12/19 11:27:28;;;;;;;5.10;1.40;;;;;;;19.07;40.30;101481.66;5001427;28;20494;-72
2022/12/19 11:29:54;;;;;;;3.00;1.10;;;;;;;19.08;40.28;101486.81;4995804;28;20065;-71
2022/12/19 11:32:31;;;;;;;3.28;1.30;;;;;;;19.06;40.04;101475.53;5000615;28;20041;-73
2022/12/19 11:35:01;;;;;;;3.00;1.30;;;;;;;19.05;40.34;101476.47;5003421;28;20081;-72
2022/12/19 11:37:43;;;;;;;2.35;1.10;;;;;;;19.01;40.45;101467.94;5004628;28;20092;-69
2022/12/19 11:40:27;;;;;;;2.97;1.48;;;;;;;19.05;40.22;101463.25;5003688;28;20377;-71